createdAt,value
2022-10-04T00:00:47.002Z,9.86
2022-10-04T00:01:47.198Z,9.86
2022-10-04T00:02:47.023Z,9.87
2022-10-04T00:03:46.970Z,9.87
2022-10-04T00:04:46.963Z,9.86
2022-10-04T00:05:46.934Z,9.87
2022-10-04T00:06:46.933Z,9.87
2022-10-04T00:07:46.913Z,9.87
2022-10-04T00:08:46.906Z,9.87
2022-10-04T00:09:47.023Z,9.86
2022-10-04T00:10:46.887Z,9.86
2022-10-04T00:11:46.884Z,9.86
2022-10-04T00:12:46.856Z,9.84
2022-10-04T00:13:46.852Z,9.84
2022-10-04T00:14:46.867Z,9.84
2022-10-04T00:15:46.870Z,9.84
2022-10-04T00:16:46.835Z,9.83
2022-10-04T00:17:46.910Z,9.81
2022-10-04T00:18:46.795Z,9.81
2022-10-04T00:19:47.022Z,9.79
2022-10-04T00:20:46.779Z,9.81
2022-10-04T00:21:46.768Z,9.81
2022-10-04T00:22:46.746Z,9.79
2022-10-04T00:23:46.734Z,9.78
2022-10-04T00:24:46.726Z,9.79
2022-10-04T00:25:46.715Z,9.78
2022-10-04T00:26:46.727Z,9.76
2022-10-04T00:27:46.756Z,9.75
2022-10-04T00:28:46.687Z,9.76
2022-10-04T00:29:46.675Z,9.75
2022-10-04T00:30:46.658Z,9.74
2022-10-04T00:31:46.686Z,9.74
2022-10-04T00:32:46.638Z,9.74
2022-10-04T00:33:46.619Z,9.74
2022-10-04T00:34:46.617Z,9.74
2022-10-04T00:35:46.607Z,9.72
2022-10-04T00:36:46.608Z,9.72
2022-10-04T00:37:46.587Z,9.72
2022-10-04T00:38:46.578Z,9.72
2022-10-04T00:39:46.558Z,9.72
2022-10-04T00:40:46.566Z,9.72
2022-10-04T00:41:46.549Z,9.74
2022-10-04T00:42:46.528Z,9.74
2022-10-04T00:43:46.518Z,9.74
2022-10-04T00:44:46.510Z,9.74
2022-10-04T00:45:46.569Z,9.74
2022-10-04T00:46:46.501Z,9.75
2022-10-04T00:47:46.468Z,9.72
2022-10-04T00:48:46.459Z,9.72
2022-10-04T00:49:46.450Z,9.71
2022-10-04T00:50:46.440Z,9.72
2022-10-04T00:51:46.431Z,9.74
2022-10-04T00:52:46.423Z,9.69
2022-10-04T00:53:46.400Z,9.71
2022-10-04T00:54:46.400Z,9.71
2022-10-04T00:55:46.392Z,9.69
2022-10-04T00:56:46.399Z,9.68
2022-10-04T00:57:46.473Z,9.68
2022-10-04T00:58:46.352Z,9.66
2022-10-04T00:59:46.340Z,9.66
2022-10-04T01:00:46.367Z,9.65
2022-10-04T01:01:46.391Z,9.64
2022-10-04T01:02:46.314Z,9.64
2022-10-04T01:03:46.293Z,9.64
2022-10-04T01:04:46.292Z,9.61
2022-10-04T01:05:46.282Z,9.61
2022-10-04T01:06:46.272Z,9.61
2022-10-04T01:07:46.255Z,9.60
2022-10-04T01:08:46.253Z,9.61
2022-10-04T01:09:46.234Z,9.61
2022-10-04T01:10:46.231Z,9.61
2022-10-04T01:11:46.454Z,9.61
2022-10-04T01:12:46.218Z,9.61
2022-10-04T01:13:46.185Z,9.61
2022-10-04T01:14:46.182Z,9.64
2022-10-04T01:15:46.245Z,9.65
2022-10-04T01:16:46.173Z,9.64
2022-10-04T01:17:46.144Z,9.65
2022-10-04T01:18:46.133Z,9.65
2022-10-04T01:19:46.126Z,9.66
2022-10-04T01:20:46.125Z,9.66
2022-10-04T01:21:46.104Z,9.66
2022-10-04T01:22:46.099Z,9.66
2022-10-04T01:23:46.075Z,9.68
2022-10-04T01:24:46.203Z,9.69
2022-10-04T01:25:46.055Z,9.71
2022-10-04T01:26:46.056Z,9.69
2022-10-04T01:27:46.033Z,9.69
2022-10-04T01:28:46.027Z,9.71
2022-10-04T01:29:46.016Z,9.69
2022-10-04T01:30:46.006Z,9.71
2022-10-04T01:31:46.276Z,9.71
2022-10-04T01:32:45.997Z,9.72
2022-10-04T01:33:45.976Z,9.72
2022-10-04T01:34:45.956Z,9.72
2022-10-04T01:35:45.947Z,9.72
2022-10-04T01:36:45.949Z,9.71
2022-10-04T01:37:45.927Z,9.71
2022-10-04T01:38:45.917Z,9.69
2022-10-04T01:39:45.907Z,9.68
2022-10-04T01:40:45.949Z,9.68
2022-10-04T01:41:45.898Z,9.66
2022-10-04T01:42:45.869Z,9.65
2022-10-04T01:43:45.867Z,9.65
2022-10-04T01:44:45.849Z,9.64
2022-10-04T01:45:45.840Z,9.61
2022-10-04T01:46:45.884Z,9.61
2022-10-04T01:47:45.849Z,9.61
2022-10-04T01:48:45.817Z,9.60
2022-10-04T01:49:45.869Z,9.58
2022-10-04T01:50:45.821Z,9.57
2022-10-04T01:51:45.863Z,9.57
2022-10-04T01:52:45.770Z,9.56
2022-10-04T01:53:46.032Z,9.56
2022-10-04T01:54:45.741Z,9.54
2022-10-04T01:55:45.829Z,9.53
2022-10-04T01:56:45.926Z,9.53
2022-10-04T01:57:46.002Z,9.51
2022-10-04T01:58:45.700Z,9.51
2022-10-04T01:59:45.680Z,9.51
2022-10-04T02:00:45.719Z,9.50
2022-10-04T02:01:45.939Z,9.50
2022-10-04T02:02:45.651Z,9.50
2022-10-04T02:03:45.667Z,9.48
2022-10-04T02:04:45.846Z,9.48
2022-10-04T02:05:45.611Z,9.48
2022-10-04T02:06:45.613Z,9.47
2022-10-04T02:07:45.594Z,9.48
2022-10-04T02:08:45.591Z,9.48
2022-10-04T02:09:45.573Z,9.47
2022-10-04T02:10:45.563Z,9.47
2022-10-04T02:11:45.564Z,9.47
2022-10-04T02:12:45.595Z,9.47
2022-10-04T02:13:45.534Z,9.46
2022-10-04T02:14:45.523Z,9.46
2022-10-04T02:15:45.527Z,9.46
2022-10-04T02:16:45.514Z,9.47
2022-10-04T02:17:45.484Z,9.46
2022-10-04T02:18:45.534Z,9.43
2022-10-04T02:19:45.465Z,9.42
2022-10-04T02:20:45.594Z,9.42
2022-10-04T02:21:45.445Z,9.42
2022-10-04T02:22:45.514Z,9.42
2022-10-04T02:23:45.416Z,9.40
2022-10-04T02:24:45.439Z,9.40
2022-10-04T02:25:45.394Z,9.39
2022-10-04T02:26:45.435Z,9.39
2022-10-04T02:27:45.376Z,9.38
2022-10-04T02:28:45.396Z,9.36
2022-10-04T02:29:45.357Z,9.35
2022-10-04T02:30:45.505Z,9.35
2022-10-04T02:31:45.798Z,9.33
2022-10-04T02:32:45.326Z,9.32
2022-10-04T02:33:45.318Z,9.31
2022-10-04T02:34:45.306Z,9.31
2022-10-04T02:35:45.306Z,9.29
2022-10-04T02:36:45.287Z,9.28
2022-10-04T02:37:45.265Z,9.28
2022-10-04T02:38:45.309Z,9.24
2022-10-04T02:39:45.264Z,9.23
2022-10-04T02:40:45.239Z,9.21
2022-10-04T02:41:45.255Z,9.21
2022-10-04T02:42:45.208Z,9.20
2022-10-04T02:43:45.208Z,9.20
2022-10-04T02:44:45.196Z,9.17
2022-10-04T02:45:45.177Z,9.18
2022-10-04T02:46:45.463Z,9.15
2022-10-04T02:47:45.166Z,9.15
2022-10-04T02:48:45.142Z,9.14
2022-10-04T02:49:45.139Z,9.13
2022-10-04T02:50:45.121Z,9.13
2022-10-04T02:51:45.119Z,9.13
2022-10-04T02:52:45.110Z,9.10
2022-10-04T02:53:45.100Z,9.10
2022-10-04T02:54:45.079Z,9.08
2022-10-04T02:55:45.068Z,9.08
2022-10-04T02:56:45.073Z,9.08
2022-10-04T02:57:45.051Z,9.05
2022-10-04T02:58:45.041Z,9.05
2022-10-04T02:59:45.033Z,9.08
2022-10-04T03:00:45.058Z,9.04
2022-10-04T03:01:45.237Z,9.04
2022-10-04T03:02:45.017Z,9.02
2022-10-04T03:03:44.982Z,9.02
2022-10-04T03:04:44.972Z,9.01
2022-10-04T03:05:44.963Z,9.01
2022-10-04T03:06:44.960Z,8.99
2022-10-04T03:07:44.942Z,9.01
2022-10-04T03:08:44.921Z,8.99
2022-10-04T03:09:44.922Z,8.98
2022-10-04T03:10:44.992Z,8.99
2022-10-04T03:11:45.054Z,8.98
2022-10-04T03:12:44.894Z,8.98
2022-10-04T03:13:44.874Z,8.98
2022-10-04T03:14:44.865Z,8.98
2022-10-04T03:15:44.893Z,8.98
2022-10-04T03:16:44.854Z,8.98
2022-10-04T03:17:44.840Z,8.99
2022-10-04T03:18:44.823Z,8.99
2022-10-04T03:19:44.813Z,9.01
2022-10-04T03:20:44.804Z,9.01
2022-10-04T03:21:44.801Z,9.01
2022-10-04T03:22:46.894Z,9.01
2022-10-04T03:23:44.773Z,9.01
2022-10-04T03:24:44.753Z,9.02
2022-10-04T03:25:44.745Z,9.02
2022-10-04T03:26:44.744Z,9.02
2022-10-04T03:27:44.725Z,9.02
2022-10-04T03:28:44.715Z,9.02
2022-10-04T03:29:44.705Z,9.02
2022-10-04T03:30:44.685Z,9.02
2022-10-04T03:31:45.130Z,9.02
2022-10-04T03:32:44.685Z,9.01
2022-10-04T03:33:44.657Z,9.01
2022-10-04T03:34:44.651Z,9.02
2022-10-04T03:35:44.676Z,9.02
2022-10-04T03:36:44.670Z,9.02
2022-10-04T03:37:44.618Z,9.01
2022-10-04T03:38:44.606Z,9.01
2022-10-04T03:39:44.594Z,9.01
2022-10-04T03:40:44.586Z,9.01
2022-10-04T03:41:44.588Z,9.02
2022-10-04T03:42:44.556Z,9.01
2022-10-04T03:43:44.557Z,9.02
2022-10-04T03:44:44.536Z,9.04
2022-10-04T03:45:44.676Z,9.01
2022-10-04T03:46:44.526Z,9.01
2022-10-04T03:47:44.506Z,9.01
2022-10-04T03:48:44.489Z,9.01
2022-10-04T03:49:48.554Z,9.01
2022-10-04T03:50:45.476Z,9.01
2022-10-04T03:51:44.475Z,9.01
2022-10-04T03:52:44.461Z,9.02
2022-10-04T03:53:44.441Z,9.02
2022-10-04T03:54:44.440Z,8.99
2022-10-04T03:55:44.420Z,8.99
2022-10-04T03:56:44.422Z,8.99
2022-10-04T03:57:44.398Z,8.99
2022-10-04T03:58:44.387Z,8.99
2022-10-04T03:59:44.378Z,9.01
2022-10-04T04:00:44.384Z,8.98
2022-10-04T04:01:44.727Z,9.01
2022-10-04T04:02:46.248Z,8.99
2022-10-04T04:03:44.330Z,8.98
2022-10-04T04:04:44.338Z,8.99
2022-10-04T04:05:44.310Z,8.99
2022-10-04T04:06:44.310Z,8.98
2022-10-04T04:07:44.292Z,8.98
2022-10-04T04:08:44.280Z,8.98
2022-10-04T04:09:44.280Z,8.98
2022-10-04T04:10:44.262Z,8.96
2022-10-04T04:11:44.422Z,8.95
2022-10-04T04:12:44.225Z,8.98
2022-10-04T04:13:44.222Z,8.96
2022-10-04T04:14:44.212Z,8.96
2022-10-04T04:15:44.247Z,8.96
2022-10-04T04:16:44.219Z,8.96
2022-10-04T04:17:44.183Z,8.96
2022-10-04T04:18:44.172Z,8.98
2022-10-04T04:19:44.162Z,8.99
2022-10-04T04:20:44.144Z,8.99
2022-10-04T04:21:44.161Z,8.98
2022-10-04T04:22:44.124Z,8.99
2022-10-04T04:23:44.171Z,8.99
2022-10-04T04:24:44.104Z,9.01
2022-10-04T04:25:44.093Z,8.99
2022-10-04T04:26:44.096Z,9.01
2022-10-04T04:27:44.074Z,9.01
2022-10-04T04:28:44.054Z,9.04
2022-10-04T04:29:44.045Z,9.02
2022-10-04T04:30:44.034Z,9.04
2022-10-04T04:31:44.407Z,9.02
2022-10-04T04:32:44.017Z,9.04
2022-10-04T04:33:44.004Z,9.05
2022-10-04T04:34:43.996Z,9.04
2022-10-04T04:35:43.986Z,9.04
2022-10-04T04:36:44.009Z,9.05
2022-10-04T04:37:43.975Z,9.04
2022-10-04T04:38:43.959Z,9.04
2022-10-04T04:39:44.015Z,9.04
2022-10-04T04:40:43.924Z,9.05
2022-10-04T04:41:49.563Z,9.04
2022-10-04T04:42:44.895Z,9.04
2022-10-04T04:43:43.906Z,9.04
2022-10-04T04:44:43.924Z,9.04
2022-10-04T04:45:43.919Z,9.04
2022-10-04T04:46:43.975Z,9.02
2022-10-04T04:47:43.926Z,9.04
2022-10-04T04:48:43.876Z,9.04
2022-10-04T04:49:44.066Z,9.02
2022-10-04T04:50:44.027Z,9.01
2022-10-04T04:51:44.002Z,8.99
2022-10-04T04:52:43.797Z,9.01
2022-10-04T04:53:43.787Z,8.99
2022-10-04T04:54:43.978Z,8.96
2022-10-04T04:56:02.873Z,8.98
2022-10-04T04:56:44.758Z,8.98
2022-10-04T04:57:43.757Z,8.96
2022-10-04T04:58:43.860Z,8.95
2022-10-04T04:59:43.738Z,8.92
2022-10-04T05:00:43.767Z,8.92
2022-10-04T05:01:44.081Z,8.94
2022-10-04T05:02:43.688Z,8.92
2022-10-04T05:03:43.679Z,8.91
2022-10-04T05:04:43.667Z,8.91
2022-10-04T05:05:43.660Z,8.89
2022-10-04T05:06:43.658Z,8.87
2022-10-04T05:07:43.639Z,8.87
2022-10-04T05:08:43.762Z,8.86
2022-10-04T05:09:43.610Z,8.86
2022-10-04T05:10:43.618Z,8.84
2022-10-04T05:11:43.954Z,8.84
2022-10-04T05:12:43.571Z,8.86
2022-10-04T05:13:43.571Z,8.86
2022-10-04T05:14:43.559Z,8.86
2022-10-04T05:15:43.542Z,8.87
2022-10-04T05:16:43.630Z,8.87
2022-10-04T05:17:43.531Z,8.86
2022-10-04T05:18:43.512Z,8.89
2022-10-04T05:19:43.510Z,8.92
2022-10-04T05:20:43.492Z,8.94
2022-10-04T05:21:43.927Z,8.95
2022-10-04T05:22:43.477Z,8.96
2022-10-04T05:23:43.705Z,8.99
2022-10-04T05:24:43.442Z,9.01
2022-10-04T05:25:43.442Z,9.01
2022-10-04T05:26:43.442Z,9.04
2022-10-04T05:27:43.420Z,9.05
2022-10-04T05:28:43.403Z,9.10
2022-10-04T05:29:43.402Z,9.11
2022-10-04T05:30:43.381Z,9.10
2022-10-04T05:31:43.625Z,9.10
2022-10-04T05:32:43.362Z,9.11
2022-10-04T05:33:43.354Z,9.13
2022-10-04T05:34:43.346Z,9.13
2022-10-04T05:35:43.336Z,9.14
2022-10-04T05:36:43.332Z,9.14
2022-10-04T05:37:43.313Z,9.14
2022-10-04T05:38:43.294Z,9.14
2022-10-04T05:39:43.283Z,9.14
2022-10-04T05:40:43.286Z,9.17
2022-10-04T05:41:43.597Z,9.15
2022-10-04T05:42:43.275Z,9.17
2022-10-04T05:43:43.237Z,9.17
2022-10-04T05:44:43.235Z,9.17
2022-10-04T05:45:43.287Z,9.17
2022-10-04T05:46:44.181Z,9.15
2022-10-04T05:47:43.197Z,9.15
2022-10-04T05:48:43.205Z,9.14
2022-10-04T05:49:43.176Z,9.13
2022-10-04T05:50:43.175Z,9.14
2022-10-04T05:51:43.436Z,9.13
2022-10-04T05:52:43.146Z,9.13
2022-10-04T05:53:43.368Z,9.13
2022-10-04T05:54:43.147Z,9.11
2022-10-04T05:55:43.106Z,9.10
2022-10-04T05:56:43.117Z,9.11
2022-10-04T05:57:43.162Z,9.13
2022-10-04T05:58:43.087Z,9.13
2022-10-04T05:59:43.088Z,9.13
2022-10-04T06:00:43.057Z,9.11
2022-10-04T06:01:43.725Z,9.11
2022-10-04T06:02:43.109Z,9.11
2022-10-04T06:03:43.019Z,9.11
2022-10-04T06:04:43.010Z,9.13
2022-10-04T06:05:43.008Z,9.11
2022-10-04T06:06:43.001Z,9.13
2022-10-04T06:07:42.978Z,9.13
2022-10-04T06:08:42.966Z,9.13
2022-10-04T06:09:43.281Z,9.14
2022-10-04T06:10:42.960Z,9.15
2022-10-04T06:11:43.181Z,9.15
2022-10-04T06:12:44.587Z,9.17
2022-10-04T06:13:42.919Z,9.15
2022-10-04T06:14:42.910Z,9.18
2022-10-04T06:15:42.900Z,9.17
2022-10-04T06:16:42.942Z,9.17
2022-10-04T06:17:42.930Z,9.17
2022-10-04T06:18:42.859Z,9.20
2022-10-04T06:19:42.871Z,9.20
2022-10-04T06:20:42.838Z,9.18
2022-10-04T06:21:43.113Z,9.20
2022-10-04T06:22:42.819Z,9.20
2022-10-04T06:23:42.809Z,9.23
2022-10-04T06:24:42.790Z,9.20
2022-10-04T06:25:42.849Z,9.21
2022-10-04T06:26:42.782Z,9.21
2022-10-04T06:27:42.761Z,9.24
2022-10-04T06:28:42.744Z,9.24
2022-10-04T06:29:42.742Z,9.26
2022-10-04T06:30:42.768Z,9.26
2022-10-04T06:31:42.936Z,9.29
2022-10-04T06:32:42.705Z,9.29
2022-10-04T06:33:42.701Z,9.31
2022-10-04T06:34:42.813Z,9.32
2022-10-04T06:35:42.685Z,9.32
2022-10-04T06:36:42.833Z,9.33
2022-10-04T06:37:42.714Z,9.32
2022-10-04T06:38:42.645Z,9.33
2022-10-04T06:39:42.623Z,9.35
2022-10-04T06:40:42.617Z,9.36
2022-10-04T06:41:42.866Z,9.39
2022-10-04T06:42:42.643Z,9.42
2022-10-04T06:43:42.594Z,9.42
2022-10-04T06:44:46.293Z,9.43
2022-10-04T06:45:42.703Z,9.46
2022-10-04T06:46:42.636Z,9.48
2022-10-04T06:47:42.537Z,9.48
2022-10-04T06:48:42.545Z,9.51
2022-10-04T06:49:42.516Z,9.51
2022-10-04T06:50:42.514Z,9.54
2022-10-04T06:51:42.774Z,9.56
2022-10-04T06:52:42.546Z,9.57
2022-10-04T06:53:42.476Z,9.58
2022-10-04T06:54:42.458Z,9.60
2022-10-04T06:55:42.462Z,9.61
2022-10-04T06:56:42.446Z,9.65
2022-10-04T06:57:42.426Z,9.66
2022-10-04T06:58:42.414Z,9.69
2022-10-04T06:59:42.406Z,9.69
2022-10-04T07:00:42.390Z,9.74
2022-10-04T07:01:42.642Z,9.76
2022-10-04T07:02:42.420Z,9.81
2022-10-04T07:03:42.360Z,9.83
2022-10-04T07:05:06.886Z,9.84
2022-10-04T07:05:43.361Z,9.86
2022-10-04T07:06:42.339Z,9.87
2022-10-04T07:07:42.327Z,9.87
2022-10-04T07:08:42.298Z,9.90
2022-10-04T07:09:42.307Z,9.93
2022-10-04T07:10:42.279Z,9.93
2022-10-04T07:11:42.554Z,9.96
2022-10-04T07:12:42.257Z,9.96
2022-10-04T07:13:42.307Z,9.99
2022-10-04T07:14:42.246Z,10.01
2022-10-04T07:15:42.255Z,10.02
2022-10-04T07:16:42.220Z,10.05
2022-10-04T07:17:42.210Z,10.08
2022-10-04T07:18:42.189Z,10.11
2022-10-04T07:19:42.190Z,10.17
2022-10-04T07:20:42.190Z,10.22
2022-10-04T07:21:42.759Z,10.29
2022-10-04T07:22:42.151Z,10.33
2022-10-04T07:23:42.141Z,10.38
2022-10-04T07:24:42.122Z,10.42
2022-10-04T07:25:42.132Z,10.47
2022-10-04T07:26:42.132Z,10.53
2022-10-04T07:27:42.094Z,10.60
2022-10-04T07:28:42.082Z,10.64
2022-10-04T07:29:42.460Z,10.71
2022-10-04T07:30:42.089Z,10.73
2022-10-04T07:31:42.344Z,10.78
2022-10-04T07:32:42.044Z,10.85
2022-10-04T07:33:42.033Z,10.89
2022-10-04T07:34:42.023Z,10.94
2022-10-04T07:35:42.014Z,11.00
2022-10-04T07:36:42.024Z,11.06
2022-10-04T07:37:41.994Z,11.14
2022-10-04T07:38:41.974Z,11.18
2022-10-04T07:39:41.964Z,11.22
2022-10-04T07:40:41.963Z,11.28
2022-10-04T07:41:42.280Z,11.33
2022-10-04T07:42:41.926Z,11.37
2022-10-04T07:43:41.937Z,11.43
2022-10-04T07:44:41.905Z,11.47
2022-10-04T07:45:41.952Z,11.52
2022-10-04T07:46:41.961Z,11.55
2022-10-04T07:47:41.879Z,11.61
2022-10-04T07:48:41.917Z,11.64
2022-10-04T07:49:41.856Z,11.70
2022-10-04T07:50:41.841Z,11.75
2022-10-04T07:51:42.149Z,11.78
2022-10-04T07:52:41.826Z,11.80
2022-10-04T07:53:41.826Z,11.86
2022-10-04T07:54:41.799Z,11.88
2022-10-04T07:55:41.801Z,11.91
2022-10-04T07:56:41.786Z,11.95
2022-10-04T07:57:41.761Z,11.96
2022-10-04T07:58:45.499Z,11.98
2022-10-04T07:59:41.742Z,12.01
2022-10-04T08:00:41.735Z,12.02
2022-10-04T08:01:42.194Z,12.04
2022-10-04T08:02:41.807Z,12.05
2022-10-04T08:03:41.698Z,12.10
2022-10-04T08:04:41.681Z,12.13
2022-10-04T08:05:41.680Z,12.14
2022-10-04T08:06:41.922Z,12.19
2022-10-04T08:07:41.652Z,12.21
2022-10-04T08:08:41.642Z,12.24
2022-10-04T08:09:41.623Z,12.29
2022-10-04T08:10:41.613Z,12.31
2022-10-04T08:11:41.825Z,12.32
2022-10-04T08:12:41.615Z,12.37
2022-10-04T08:13:41.584Z,12.41
2022-10-04T08:14:41.563Z,12.45
2022-10-04T08:15:41.588Z,12.47
2022-10-04T08:16:41.832Z,12.52
2022-10-04T08:17:41.545Z,12.54
2022-10-04T08:18:41.543Z,12.57
2022-10-04T08:19:41.528Z,12.60
2022-10-04T08:20:41.537Z,12.64
2022-10-04T08:21:41.487Z,12.70
2022-10-04T08:22:41.506Z,12.71
2022-10-04T08:23:41.481Z,12.72
2022-10-04T08:24:41.485Z,12.74
2022-10-04T08:25:41.505Z,12.75
2022-10-04T08:26:41.597Z,12.78
2022-10-04T08:27:41.418Z,12.82
2022-10-04T08:28:41.425Z,12.83
2022-10-04T08:29:41.427Z,12.83
2022-10-04T08:30:41.448Z,12.85
2022-10-04T08:31:41.400Z,12.85
2022-10-04T08:32:41.371Z,12.86
2022-10-04T08:33:41.358Z,12.89
2022-10-04T08:34:41.380Z,12.90
2022-10-04T08:35:41.348Z,12.92
2022-10-04T08:36:41.624Z,12.96
2022-10-04T08:37:41.581Z,13.00
2022-10-04T08:38:41.320Z,13.03
2022-10-04T08:39:41.302Z,13.04
2022-10-04T08:40:41.305Z,13.07
2022-10-04T08:41:41.263Z,13.11
2022-10-04T08:42:41.253Z,13.14
2022-10-04T08:43:41.240Z,13.19
2022-10-04T08:44:41.232Z,13.22
2022-10-04T08:45:41.297Z,13.25
2022-10-04T08:46:41.608Z,13.26
2022-10-04T08:47:41.199Z,13.30
2022-10-04T08:48:41.203Z,13.33
2022-10-04T08:49:41.203Z,13.39
2022-10-04T08:50:41.194Z,13.44
2022-10-04T08:51:41.183Z,13.46
2022-10-04T08:52:41.148Z,13.49
2022-10-04T08:53:41.205Z,13.51
2022-10-04T08:54:41.125Z,13.57
2022-10-04T08:55:41.116Z,13.60
2022-10-04T08:56:41.520Z,13.64
2022-10-04T08:57:41.087Z,13.67
2022-10-04T08:58:41.097Z,13.71
2022-10-04T08:59:41.075Z,13.77
2022-10-04T09:00:41.066Z,13.79
2022-10-04T09:01:41.274Z,13.79
2022-10-04T09:02:41.064Z,13.81
2022-10-04T09:03:41.227Z,13.84
2022-10-04T09:04:41.018Z,13.85
2022-10-04T09:05:41.007Z,13.88
2022-10-04T09:06:41.389Z,13.91
2022-10-04T09:07:40.988Z,13.96
2022-10-04T09:08:40.971Z,14.00
2022-10-04T09:09:40.996Z,14.04
2022-10-04T09:10:40.948Z,14.09
2022-10-04T09:11:40.948Z,14.15
2022-10-04T09:12:40.920Z,14.21
2022-10-04T09:13:40.910Z,14.25
2022-10-04T09:14:40.899Z,14.28
2022-10-04T09:15:40.930Z,14.32
2022-10-04T09:16:41.178Z,14.35
2022-10-04T09:17:40.859Z,14.39
2022-10-04T09:18:40.861Z,14.43
2022-10-04T09:19:40.840Z,14.47
2022-10-04T09:20:40.992Z,14.52
2022-10-04T09:21:40.823Z,14.57
2022-10-04T09:22:40.821Z,14.58
2022-10-04T09:23:40.803Z,14.60
2022-10-04T09:24:40.783Z,14.61
2022-10-04T09:25:40.773Z,14.64
2022-10-04T09:26:41.281Z,14.69
2022-10-04T09:27:55.978Z,14.75
2022-10-04T09:28:41.776Z,14.78
2022-10-04T09:29:40.750Z,14.86
2022-10-04T09:30:40.841Z,14.94
2022-10-04T09:31:40.725Z,15.01
2022-10-04T09:32:40.708Z,15.09
2022-10-04T09:33:40.705Z,15.20
2022-10-04T09:34:40.677Z,15.29
2022-10-04T09:35:40.666Z,15.41
2022-10-04T09:36:41.105Z,15.50
2022-10-04T09:37:40.640Z,15.59
2022-10-04T09:38:40.644Z,15.67
2022-10-04T09:39:40.630Z,15.72
2022-10-04T09:40:43.263Z,15.82
2022-10-04T09:41:41.614Z,15.89
2022-10-04T09:42:40.589Z,15.93
2022-10-04T09:43:40.572Z,16.00
2022-10-04T09:44:40.580Z,16.04
2022-10-04T09:45:40.591Z,16.07
2022-10-04T09:46:40.872Z,16.09
2022-10-04T09:47:40.544Z,16.14
2022-10-04T09:48:40.522Z,16.20
2022-10-04T09:49:40.511Z,16.23
2022-10-04T09:50:40.515Z,16.25
2022-10-04T09:51:40.492Z,16.30
2022-10-04T09:52:40.482Z,16.34
2022-10-04T09:53:40.475Z,16.41
2022-10-04T09:54:44.343Z,16.48
2022-10-04T09:55:40.446Z,16.56
2022-10-04T09:56:40.884Z,16.61
2022-10-04T09:57:40.426Z,16.66
2022-10-04T09:58:40.426Z,16.73
2022-10-04T09:59:40.407Z,16.79
2022-10-04T10:00:40.397Z,16.88
2022-10-04T10:01:40.445Z,16.91
2022-10-04T10:02:40.451Z,16.96
2022-10-04T10:03:40.359Z,17.03
2022-10-04T10:04:40.362Z,17.07
2022-10-04T10:05:40.349Z,17.12
2022-10-04T10:06:40.515Z,17.16
2022-10-04T10:07:40.322Z,17.21
2022-10-04T10:08:40.311Z,17.26
2022-10-04T10:09:40.293Z,17.33
2022-10-04T10:10:40.301Z,17.38
2022-10-04T10:11:40.621Z,17.41
2022-10-04T10:12:40.273Z,17.46
2022-10-04T10:13:40.264Z,17.51
2022-10-04T10:14:40.253Z,17.54
2022-10-04T10:15:40.272Z,17.56
2022-10-04T10:16:40.393Z,17.59
2022-10-04T10:17:40.224Z,17.63
2022-10-04T10:18:40.206Z,17.66
2022-10-04T10:19:40.207Z,17.71
2022-10-04T10:20:40.180Z,17.74
2022-10-04T10:21:40.449Z,17.75
2022-10-04T10:22:40.161Z,17.78
2022-10-04T10:23:40.161Z,17.81
2022-10-04T10:24:40.140Z,17.82
2022-10-04T10:25:40.151Z,17.82
2022-10-04T10:26:40.170Z,17.82
2022-10-04T10:27:40.122Z,17.84
2022-10-04T10:28:40.158Z,17.87
2022-10-04T10:29:40.092Z,17.90
2022-10-04T10:30:40.075Z,17.96
2022-10-04T10:31:41.291Z,17.97
2022-10-04T10:32:40.063Z,18.03
2022-10-04T10:33:40.055Z,18.07
2022-10-04T10:34:40.047Z,18.08
2022-10-04T10:35:40.035Z,18.10
2022-10-04T10:36:40.027Z,18.07
2022-10-04T10:37:40.006Z,18.05
2022-10-04T10:38:39.998Z,17.99
2022-10-04T10:39:39.988Z,17.92
2022-10-04T10:40:40.034Z,17.87
2022-10-04T10:41:40.019Z,17.84
2022-10-04T10:42:39.969Z,17.82
2022-10-04T10:43:39.951Z,17.84
2022-10-04T10:44:39.939Z,17.78
2022-10-04T10:45:39.935Z,17.77
2022-10-04T10:46:40.028Z,17.71
2022-10-04T10:47:39.912Z,17.63
2022-10-04T10:48:39.994Z,17.54
2022-10-04T10:49:39.903Z,17.44
2022-10-04T10:50:40.113Z,17.38
2022-10-04T10:51:39.874Z,17.36
2022-10-04T10:52:39.857Z,17.36
2022-10-04T10:53:39.865Z,17.44
2022-10-04T10:54:39.827Z,17.51
2022-10-04T10:55:39.827Z,17.58
2022-10-04T10:56:39.932Z,17.74
2022-10-04T10:57:39.807Z,17.78
2022-10-04T10:58:39.908Z,17.74
2022-10-04T10:59:39.787Z,17.71
2022-10-04T11:00:39.769Z,17.71
2022-10-04T11:01:39.872Z,17.72
2022-10-04T11:02:49.268Z,17.77
2022-10-04T11:03:40.832Z,17.84
2022-10-04T11:04:39.731Z,17.84
2022-10-04T11:05:39.727Z,17.81
2022-10-04T11:06:39.741Z,17.77
2022-10-04T11:07:39.703Z,17.77
2022-10-04T11:08:39.691Z,17.78
2022-10-04T11:09:39.681Z,17.78
2022-10-04T11:10:39.673Z,17.82
2022-10-04T11:11:39.673Z,17.79
2022-10-04T11:12:39.647Z,17.82
2022-10-04T11:13:39.646Z,17.84
2022-10-04T11:14:39.637Z,17.87
2022-10-04T11:15:39.691Z,17.87
2022-10-04T11:16:39.639Z,17.89
2022-10-04T11:17:39.619Z,17.95
2022-10-04T11:18:39.578Z,18.02
2022-10-04T11:19:39.590Z,18.07
2022-10-04T11:20:39.570Z,18.07
2022-10-04T11:21:39.571Z,18.07
2022-10-04T11:22:39.541Z,18.08
2022-10-04T11:23:39.540Z,18.10
2022-10-04T11:24:39.521Z,18.12
2022-10-04T11:25:39.522Z,18.20
2022-10-04T11:26:39.521Z,18.25
2022-10-04T11:27:39.504Z,18.29
2022-10-04T11:28:39.537Z,18.35
2022-10-04T11:29:39.487Z,18.44
2022-10-04T11:30:39.469Z,18.54
2022-10-04T11:31:39.515Z,18.58
2022-10-04T11:32:39.444Z,18.58
2022-10-04T11:33:39.435Z,18.58
2022-10-04T11:34:39.426Z,18.62
2022-10-04T11:35:39.417Z,18.60
2022-10-04T11:36:39.417Z,18.55
2022-10-04T11:37:39.398Z,18.51
2022-10-04T11:38:39.387Z,18.51
2022-10-04T11:39:43.758Z,18.44
2022-10-04T11:40:40.369Z,18.48
2022-10-04T11:41:39.369Z,18.66
2022-10-04T11:42:39.341Z,18.88
2022-10-04T11:43:39.333Z,19.10
2022-10-04T11:44:39.333Z,19.18
2022-10-04T11:45:39.309Z,19.19
2022-10-04T11:46:39.411Z,19.18
2022-10-04T11:47:39.315Z,19.14
2022-10-04T11:48:39.284Z,19.16
2022-10-04T11:49:39.274Z,19.19
2022-10-04T11:50:39.265Z,19.22
2022-10-04T11:51:39.245Z,19.21
2022-10-04T11:52:39.258Z,19.28
2022-10-04T11:53:39.242Z,19.26
2022-10-04T11:54:39.234Z,19.29
2022-10-04T11:55:39.218Z,19.40
2022-10-04T14:02:54.512Z,22.28
2022-10-04T14:03:54.458Z,22.31
2022-10-04T14:04:54.450Z,22.24
2022-10-04T14:05:54.441Z,22.10
2022-10-04T14:06:54.421Z,22.02
2022-10-04T14:07:54.448Z,21.90
2022-10-04T14:08:54.410Z,21.79
2022-10-04T14:09:54.401Z,21.74
2022-10-04T14:10:54.386Z,21.72
2022-10-04T14:11:54.386Z,21.69
2022-10-04T14:12:54.376Z,21.74
2022-10-04T14:13:54.355Z,21.88
2022-10-04T14:14:54.345Z,22.03
2022-10-04T14:15:54.357Z,22.15
2022-10-04T14:16:54.393Z,22.22
2022-10-04T14:17:54.316Z,22.25
2022-10-04T14:18:54.302Z,22.27
2022-10-04T14:19:54.301Z,22.25
2022-10-04T14:20:54.298Z,22.24
2022-10-04T14:21:54.277Z,22.22
2022-10-04T14:22:54.289Z,22.20
2022-10-04T14:23:54.269Z,22.10
2022-10-04T14:24:54.241Z,22.05
2022-10-04T14:25:54.240Z,21.99
2022-10-04T14:26:54.221Z,21.91
2022-10-04T14:27:54.266Z,21.84
2022-10-04T14:28:54.202Z,21.77
2022-10-04T14:29:54.194Z,21.75
2022-10-04T14:30:54.182Z,21.77
2022-10-04T14:31:54.226Z,21.77
2022-10-04T14:32:54.168Z,21.80
2022-10-04T14:33:54.152Z,21.82
2022-10-04T14:34:54.137Z,21.79
2022-10-04T14:35:54.125Z,21.74
2022-10-04T14:36:54.114Z,21.67
2022-10-04T14:37:54.116Z,21.61
2022-10-04T14:38:54.159Z,21.62
2022-10-04T14:39:54.077Z,21.59
2022-10-04T14:40:54.138Z,21.58
2022-10-04T14:41:54.067Z,21.58
2022-10-04T14:42:54.049Z,21.58
2022-10-04T14:43:54.039Z,21.65
2022-10-04T14:44:54.088Z,21.75
2022-10-04T14:45:54.048Z,21.90
2022-10-04T14:46:54.179Z,22.07
2022-10-04T14:47:54.009Z,22.21
2022-10-04T14:48:54.160Z,22.30
2022-10-04T14:49:57.943Z,22.36
2022-10-04T14:50:54.965Z,22.40
2022-10-04T14:51:53.964Z,22.43
2022-10-04T14:52:54.062Z,22.43
2022-10-04T14:53:53.943Z,22.40
2022-10-04T14:54:54.090Z,22.31
2022-10-04T14:55:53.914Z,22.27
2022-10-04T17:04:03.955Z,18.25
2022-10-04T17:05:03.699Z,18.18
2022-10-04T17:06:03.699Z,18.11
2022-10-04T17:07:03.687Z,18.05
2022-10-04T17:08:03.726Z,17.99
2022-10-04T17:09:03.659Z,17.95
2022-10-04T17:10:03.639Z,17.89
2022-10-04T17:11:03.641Z,17.84
2022-10-04T17:12:03.664Z,17.79
2022-10-04T17:13:03.609Z,17.75
2022-10-04T17:14:03.661Z,17.71
2022-10-04T17:15:03.589Z,17.68
2022-10-04T17:16:03.626Z,17.62
2022-10-04T17:17:03.600Z,17.56
2022-10-04T17:18:03.563Z,17.52
2022-10-04T17:19:03.544Z,17.48
2022-10-04T17:20:03.592Z,17.43